Time;durP1;ratioP1;P1;durP2;ratioP2;P2;SDS_P1;SDS_P2;PMS_P1;PMS_P2;Temp;Humidity;BMP_temperature;BMP_pressure;BME280_temperature;BME280_humidity;BME280_pressure;Samples;Min_cycle;Max_cycle;Signal;HPM_P1;HPM_P2
2024/01/16 00:01:14;;;;;;;4.47;2.60;;;;;;;1.93;100.00;99035.94;5071467;28;20143;-44
2024/01/16 00:03:42;;;;;;;4.70;2.78;;;;;;;1.92;100.00;99041.22;5071232;28;20114;-44
2024/01/16 00:06:13;;;;;;;5.63;2.65;;;;;;;1.98;100.00;99040.97;5071630;28;20074;-45
2024/01/16 00:08:46;;;;;;;6.25;2.90;;;;;;;2.01;100.00;99041.69;5071043;28;20045;-44
2024/01/16 00:11:14;;;;;;;5.43;2.72;;;;;;;2.05;100.00;99039.78;5071782;28;20052;-44
2024/01/16 00:13:43;;;;;;;4.82;2.67;;;;;;;2.08;100.00;99055.41;5071370;28;20055;-44
2024/01/16 00:16:11;;;;;;;5.15;2.60;;;;;;;2.04;100.00;99053.88;5071229;28;20055;-45
2024/01/16 00:18:42;;;;;;;4.28;2.30;;;;;;;2.04;100.00;99058.28;5072501;28;20075;-45
2024/01/16 00:21:12;;;;;;;4.80;2.67;;;;;;;2.07;100.00;99056.34;5072003;28;20084;-48
2024/01/16 00:23:40;;;;;;;4.07;2.28;;;;;;;2.10;100.00;99061.47;5072321;28;20175;-45
2024/01/16 00:26:20;;;;;;;4.47;2.30;;;;;;;2.05;100.00;99071.34;5075715;28;20544;-44
2024/01/16 00:28:49;;;;;;;4.07;2.28;;;;;;;2.04;100.00;99076.69;5076444;28;20125;-45
2024/01/16 00:31:17;;;;;;;5.75;2.60;;;;;;;2.05;100.00;99071.34;5074813;28;20156;-44
2024/01/16 00:33:46;;;;;;;4.15;2.50;;;;;;;2.01;100.00;99078.50;5074590;28;20182;-44
2024/01/16 00:36:15;;;;;;;4.68;2.47;;;;;;;2.07;100.00;99085.28;5074968;28;20048;-43
2024/01/16 00:38:44;;;;;;;4.43;2.47;;;;;;;2.10;100.00;99094.81;5074788;28;20104;-45
2024/01/16 00:41:15;;;;;;;4.53;2.30;;;;;;;2.09;100.00;99091.31;5075584;28;20052;-46
2024/01/16 00:43:44;;;;;;;3.90;2.25;;;;;;;2.14;100.00;99099.03;5075092;28;20094;-45
2024/01/16 00:46:13;;;;;;;4.50;2.58;;;;;;;2.10;100.00;99085.13;5075330;28;20056;-48
2024/01/16 00:48:41;;;;;;;4.25;2.20;;;;;;;2.06;100.00;99099.34;5074639;28;20044;-44
2024/01/16 00:51:10;;;;;;;4.47;2.33;;;;;;;2.09;100.00;99099.22;5074527;28;20489;-45
2024/01/16 00:53:43;;;;;;;4.20;2.22;;;;;;;2.11;100.00;99107.88;5074318;28;20144;-44
2024/01/16 00:56:12;;;;;;;;;;;;;;;2.12;100.00;99104.34;5073670;28;20045;-49
2024/01/16 00:58:42;;;;;;;6.53;2.28;;;;;;;2.18;100.00;99105.84;5074565;28;19920;-45
2024/01/16 01:01:11;;;;;;;4.88;2.15;;;;;;;2.16;100.00;99119.06;5074562;28;20045;-45
2024/01/16 01:03:42;;;;;;;4.22;2.47;;;;;;;2.10;100.00;99121.97;5074756;28;20078;-48
2024/01/16 01:06:11;;;;;;;5.45;2.22;;;;;;;2.10;100.00;99116.69;5073950;28;20148;-45
2024/01/16 01:08:40;;;;;;;4.28;2.50;;;;;;;2.14;100.00;99123.56;5074621;28;20203;-45
2024/01/16 01:11:09;;;;;;;4.40;2.38;;;;;;;2.13;100.00;99132.38;5075051;28;20040;-45
2024/01/16 01:13:37;;;;;;;4.45;2.40;;;;;;;2.08;100.00;99136.97;5074423;28;20101;-47
2024/01/16 01:16:07;;;;;;;4.80;2.38;;;;;;;2.05;100.00;99142.38;5074217;28;20059;-46
2024/01/16 01:18:37;;;;;;;4.40;2.45;;;;;;;2.04;100.00;99138.03;5074878;28;20048;-43
2024/01/16 01:21:05;;;;;;;4.63;2.50;;;;;;;2.10;100.00;99147.41;5072927;28;20136;-45
2024/01/16 01:23:34;;;;;;;4.30;2.40;;;;;;;2.10;100.00;99153.53;5073726;28;20123;-44
2024/01/16 01:26:07;;;;;;;4.85;2.40;;;;;;;2.11;100.00;99155.25;5073863;28;20501;-46
2024/01/16 01:28:39;;;;;;;5.35;2.60;;;;;;;2.04;100.00;99160.84;5073709;28;20040;-46
2024/01/16 01:31:11;;;;;;;3.88;2.38;;;;;;;2.09;100.00;99159.72;5073512;28;20045;-45
2024/01/16 01:33:40;;;;;;;4.93;2.45;;;;;;;2.05;100.00;99160.78;5073495;28;20048;-44
2024/01/16 01:36:09;;;;;;;4.38;2.60;;;;;;;1.96;100.00;99156.75;5072682;28;20063;-45
2024/01/16 01:38:38;;;;;;;3.65;2.28;;;;;;;2.00;100.00;99163.59;5073202;28;20098;-44
2024/01/16 01:41:06;;;;;;;4.15;2.45;;;;;;;2.01;100.00;99164.44;5072537;28;20040;-44
2024/01/16 01:43:36;;;;;;;4.78;2.50;;;;;;;2.02;100.00;99160.88;5073287;28;20055;-44
2024/01/16 01:46:14;;;;;;;5.82;2.40;;;;;;;2.03;100.00;99167.00;5073194;28;20040;-47
2024/01/16 01:48:45;;;;;;;4.60;2.58;;;;;;;2.02;100.00;99174.03;5073137;28;20410;-45
2024/01/16 01:51:15;;;;;;;3.95;2.55;;;;;;;1.99;100.00;99167.16;5072753;28;20077;-44
2024/01/16 01:53:52;;;;;;;5.07;2.60;;;;;;;1.96;100.00;99169.91;5073070;28;20060;-48
2024/01/16 01:56:22;;;;;;;4.47;2.72;;;;;;;2.03;100.00;99175.78;5072927;28;20052;-44
2024/01/16 01:58:57;;;;;;;4.07;2.40;;;;;;;2.05;100.00;99168.69;5072899;28;20522;-46
2024/01/16 02:01:32;;;;;;;4.50;2.78;;;;;;;2.06;100.00;99173.00;5072838;28;20402;-45
2024/01/16 02:04:02;;;;;;;6.03;2.65;;;;;;;2.07;100.00;99185.25;5073093;28;20081;-43
2024/01/16 02:06:30;;;;;;;5.43;2.63;;;;;;;1.99;100.00;99184.69;5073012;28;20040;-45
2024/01/16 02:09:02;;;;;;;4.03;2.28;;;;;;;1.97;100.00;99186.56;5073404;28;20052;-44
2024/01/16 02:11:35;;;;;;;4.00;2.30;;;;;;;1.99;100.00;99193.44;5072700;28;20053;-45
2024/01/16 02:14:03;;;;;;;5.25;2.25;;;;;;;1.99;100.00;99195.22;5072911;28;20048;-46
2024/01/16 02:16:38;;;;;;;3.83;2.35;;;;;;;1.98;100.00;99193.50;5072848;28;20084;-44
2024/01/16 02:19:07;;;;;;;5.05;2.65;;;;;;;2.03;100.00;99196.81;5073168;28;20089;-44
2024/01/16 02:21:39;;;;;;;3.70;2.22;;;;;;;1.99;100.00;99214.50;5073248;28;20044;-45
2024/01/16 02:24:10;;;;;;;4.00;2.33;;;;;;;2.00;100.00;99210.09;5073481;28;20044;-44
2024/01/16 02:26:39;;;;;;;4.70;2.50;;;;;;;1.99;100.00;99224.16;5073284;28;20509;-43
2024/01/16 02:29:07;;;;;;;4.45;2.78;;;;;;;2.00;100.00;99236.38;5073316;28;20051;-45
2024/01/16 02:31:36;;;;;;;4.97;2.38;;;;;;;2.01;100.00;99232.81;5071926;28;20489;-44
2024/01/16 02:34:05;;;;;;;4.68;2.45;;;;;;;1.99;100.00;99237.31;5072529;28;20058;-45
2024/01/16 02:36:33;;;;;;;4.20;2.50;;;;;;;2.03;100.00;99241.53;5073123;28;20126;-44
2024/01/16 02:39:02;;;;;;;4.60;2.30;;;;;;;2.00;100.00;99247.75;5072785;28;20049;-44
2024/01/16 02:41:32;;;;;;;4.40;2.38;;;;;;;1.94;100.00;99250.66;5072407;28;20255;-45
2024/01/16 02:44:00;;;;;;;5.10;2.60;;;;;;;1.96;100.00;99247.97;5072338;28;20064;-46
2024/01/16 02:46:29;;;;;;;4.45;2.50;;;;;;;1.97;100.00;99247.91;5072221;28;20044;-44
2024/01/16 02:48:57;;;;;;;4.47;2.47;;;;;;;1.97;100.00;99257.56;5071227;28;20090;-45
2024/01/16 02:51:25;;;;;;;5.63;3.00;;;;;;;2.03;100.00;99252.06;5071946;28;20044;-45
2024/01/16 02:53:53;;;;;;;4.38;2.55;;;;;;;2.03;100.00;99256.44;5071770;28;20051;-44
2024/01/16 02:56:22;;;;;;;4.32;2.50;;;;;;;2.06;100.00;99257.19;5071818;28;20409;-43
2024/01/16 02:58:52;;;;;;;5.13;3.15;;;;;;;2.08;100.00;99257.13;5071951;28;20052;-45
2024/01/16 03:01:20;;;;;;;5.25;2.75;;;;;;;2.06;100.00;99251.06;5070585;28;20048;-44
2024/01/16 03:03:51;;;;;;;5.13;2.83;;;;;;;2.06;100.00;99254.56;5071624;28;20045;-46
2024/01/16 03:06:24;;;;;;;5.75;3.13;;;;;;;2.00;100.00;99252.16;5071799;28;20067;-44
2024/01/16 03:08:52;;;;;;;5.85;3.33;;;;;;;1.97;100.00;99257.56;5071990;28;20436;-44
2024/01/16 03:11:21;;;;;;;6.85;3.15;;;;;;;1.93;100.00;99255.94;5071851;28;20049;-44
2024/01/16 03:13:52;;;;;;;5.80;3.03;;;;;;;1.96;100.00;99256.72;5071968;28;20056;-45
2024/01/16 03:16:22;;;;;;;4.43;2.78;;;;;;;1.91;100.00;99256.03;5071497;28;20095;-44
2024/01/16 03:18:52;;;;;;;5.28;2.97;;;;;;;1.92;100.00;99259.50;5071605;28;20135;-45
2024/01/16 03:21:20;;;;;;;5.05;3.03;;;;;;;1.94;100.00;99261.19;5071856;28;20044;-45
2024/01/16 03:23:49;;;;;;;6.40;2.95;;;;;;;1.88;100.00;99271.09;5071753;28;20044;-50
2024/01/16 03:26:17;;;;;;;5.25;2.80;;;;;;;1.92;100.00;99270.03;5071523;28;20044;-46
2024/01/16 03:28:46;;;;;;;5.85;2.85;;;;;;;1.92;100.00;99280.53;5071563;28;20053;-44
2024/01/16 03:31:14;;;;;;;4.60;2.72;;;;;;;1.83;100.00;99275.66;5071304;28;20378;-45
2024/01/16 03:33:45;;;;;;;7.25;3.38;;;;;;;1.83;100.00;99280.91;5070237;28;20049;-44
2024/01/16 03:36:15;;;;;;;5.55;2.78;;;;;;;1.84;100.00;99277.41;5071603;28;20415;-44
2024/01/16 03:38:50;;;;;;;6.45;3.25;;;;;;;1.88;100.00;99273.72;5071415;28;20109;-45
2024/01/16 03:41:18;;;;;;;5.93;3.08;;;;;;;1.87;100.00;99279.91;5071487;28;20090;-45
2024/01/16 03:43:47;;;;;;;5.30;2.97;;;;;;;1.77;100.00;99281.19;5071381;28;20140;-44
2024/01/16 03:46:15;;;;;;;6.20;3.25;;;;;;;1.80;100.00;99289.78;5071417;28;20048;-45
2024/01/16 03:48:47;;;;;;;6.15;3.03;;;;;;;1.77;100.00;99289.06;5070997;28;20127;-46
2024/01/16 03:51:17;;;;;;;5.40;2.92;;;;;;;1.78;100.00;99298.66;5071087;28;20131;-46
2024/01/16 03:53:46;;;;;;;5.47;3.33;;;;;;;1.77;100.00;99302.22;5071037;28;20091;-44
2024/01/16 03:56:16;;;;;;;7.25;3.15;;;;;;;1.84;100.00;99306.31;5071357;28;20105;-44
2024/01/16 03:58:45;;;;;;;5.70;3.22;;;;;;;1.80;100.00;99307.34;5071312;28;20049;-44
2024/01/16 04:01:15;;;;;;;4.82;2.88;;;;;;;1.72;100.00;99311.13;5074754;28;20087;-45
2024/01/16 04:03:44;;;;;;;5.57;3.30;;;;;;;1.83;100.00;99315.09;5074964;28;20079;-43
2024/01/16 04:06:17;;;;;;;6.20;3.17;;;;;;;1.80;100.00;99313.47;5074857;28;20581;-44
2024/01/16 04:08:46;;;;;;;4.85;3.08;;;;;;;1.88;100.00;99321.03;5074779;28;20044;-43
2024/01/16 04:11:14;;;;;;;6.13;3.08;;;;;;;1.90;100.00;99303.44;5074769;28;20090;-44
2024/01/16 04:13:43;;;;;;;5.25;2.90;;;;;;;1.90;100.00;99317.44;5075073;28;20045;-45
2024/01/16 04:16:14;;;;;;;6.97;2.60;;;;;;;1.93;100.00;99319.97;5074672;28;20074;-45
2024/01/16 04:18:44;;;;;;;6.05;3.08;;;;;;;1.93;100.00;99322.59;5074618;28;20497;-44
2024/01/16 04:21:13;;;;;;;5.65;3.03;;;;;;;1.95;100.00;99325.16;5074579;28;20055;-44
2024/01/16 04:23:45;;;;;;;5.43;3.25;;;;;;;1.81;100.00;99325.69;5074318;28;20060;-44
2024/01/16 04:26:13;;;;;;;5.35;2.92;;;;;;;1.86;100.00;99331.63;5074727;28;20048;-44
2024/01/16 04:28:47;;;;;;;7.15;3.20;;;;;;;1.81;100.00;99324.81;5074580;28;20052;-43
2024/01/16 04:31:17;;;;;;;;;;;;;;;1.81;100.00;99337.97;5075042;28;20049;-49
2024/01/16 04:33:49;;;;;;;6.95;3.28;;;;;;;1.84;100.00;99340.50;5074669;28;19928;-43
2024/01/16 04:36:17;;;;;;;5.57;2.88;;;;;;;1.88;100.00;99342.09;5074093;28;20045;-46
2024/01/16 04:38:46;;;;;;;5.25;3.20;;;;;;;1.91;100.00;99340.19;5074650;28;20049;-44
2024/01/16 04:41:14;;;;;;;5.35;2.83;;;;;;;1.86;100.00;99354.44;5074496;28;20045;-44
2024/01/16 04:43:43;;;;;;;8.43;3.20;;;;;;;1.84;100.00;99353.66;5074396;28;20409;-45
2024/01/16 04:46:11;;;;;;;6.78;3.33;;;;;;;1.78;100.00;99356.50;5074094;28;20049;-44
2024/01/16 04:48:40;;;;;;;5.68;3.33;;;;;;;1.80;100.00;99375.72;5074409;28;20052;-44
2024/01/16 04:51:10;;;;;;;5.25;2.90;;;;;;;1.83;100.00;99365.06;5074045;28;20382;-44
2024/01/16 04:53:38;;;;;;;5.70;3.00;;;;;;;1.81;100.00;99372.16;5074004;28;20048;-44
2024/01/16 04:56:07;;;;;;;5.15;3.00;;;;;;;1.87;100.00;99369.31;5073976;28;20185;-44
2024/01/16 04:58:35;;;;;;;5.78;3.20;;;;;;;1.91;100.00;99374.38;5073638;28;20044;-46
2024/01/16 05:01:03;;;;;;;6.35;2.75;;;;;;;1.83;100.00;99381.69;5073830;28;20503;-46
2024/01/16 05:03:32;;;;;;;6.07;2.97;;;;;;;1.80;100.00;99387.09;5073697;28;20053;-45
2024/01/16 05:06:00;;;;;;;5.38;3.25;;;;;;;1.81;100.00;99387.94;5073851;28;20132;-44
2024/01/16 05:08:31;;;;;;;4.82;2.85;;;;;;;1.84;100.00;99395.72;5073610;28;20445;-45
2024/01/16 05:10:59;;;;;;;4.80;2.88;;;;;;;1.84;100.00;99387.84;5072242;28;20492;-45
2024/01/16 05:13:28;;;;;;;6.95;3.38;;;;;;;1.89;100.00;99392.00;5073252;28;20041;-46
2024/01/16 05:15:59;;;;;;;5.72;3.00;;;;;;;1.77;100.00;99407.38;5073316;28;20126;-44
2024/01/16 05:18:27;;;;;;;7.20;3.22;;;;;;;1.80;100.00;99405.47;5072169;28;20048;-51
2024/01/16 05:20:56;;;;;;;6.03;3.10;;;;;;;1.80;100.00;99404.63;5073776;28;20133;-46
2024/01/16 05:23:27;;;;;;;6.07;2.83;;;;;;;1.78;100.00;99415.22;5074017;28;20044;-44
2024/01/16 05:25:57;;;;;;;6.03;3.17;;;;;;;1.83;100.00;99408.00;5073445;28;20048;-48
2024/01/16 05:28:25;;;;;;;5.78;3.13;;;;;;;1.83;100.00;99418.50;5072930;28;20044;-44
2024/01/16 05:30:53;;;;;;;6.93;3.42;;;;;;;1.83;100.00;99418.50;5073298;28;20127;-44
2024/01/16 05:33:22;;;;;;;6.78;3.17;;;;;;;1.74;100.00;99426.78;5071871;28;20413;-44
2024/01/16 05:35:51;;;;;;;7.75;3.20;;;;;;;1.77;100.00;99434.53;5072920;28;20088;-45
2024/01/16 05:38:19;;;;;;;4.72;3.05;;;;;;;1.76;100.00;99431.97;5073404;28;20414;-45
2024/01/16 05:40:47;;;;;;;10.68;3.60;;;;;;;1.73;100.00;99433.78;5073603;28;20175;-44
2024/01/16 05:43:17;;;;;;;5.78;3.20;;;;;;;1.77;100.00;99449.47;5074050;28;20053;-45
2024/01/16 05:45:46;;;;;;;6.00;3.00;;;;;;;1.73;100.00;99457.44;5073835;28;20083;-44
2024/01/16 05:48:17;;;;;;;7.18;3.60;;;;;;;1.81;100.00;99456.31;5072529;28;20047;-44
2024/01/16 05:50:45;;;;;;;5.60;2.80;;;;;;;1.75;100.00;99456.56;5073719;28;20049;-44
2024/01/16 05:53:13;;;;;;;4.63;3.03;;;;;;;1.76;100.00;99451.22;5073267;28;20110;-46
2024/01/16 05:55:42;;;;;;;4.50;2.90;;;;;;;1.74;100.00;99466.22;5073176;28;20127;-45
2024/01/16 05:58:13;;;;;;;6.15;2.97;;;;;;;1.76;100.00;99463.53;5074166;28;20070;-44
2024/01/16 06:00:43;;;;;;;6.97;3.17;;;;;;;1.76;100.00;99463.53;5073944;28;20451;-43
2024/01/16 06:03:11;;;;;;;7.85;3.20;;;;;;;1.73;100.00;99465.31;5073535;28;20044;-44
2024/01/16 06:05:41;;;;;;;6.80;3.55;;;;;;;1.73;100.00;99481.09;5072771;28;20048;-46
2024/01/16 06:08:10;;;;;;;6.55;2.92;;;;;;;1.73;100.00;99478.47;5073456;28;20053;-45
2024/01/16 06:10:38;;;;;;;5.45;3.28;;;;;;;1.77;100.00;99488.91;5072679;28;20126;-45
2024/01/16 06:13:06;;;;;;;6.30;3.15;;;;;;;1.77;100.00;99481.88;5072752;28;20055;-44
2024/01/16 06:15:34;;;;;;;5.50;3.00;;;;;;;1.80;100.00;99488.78;5072838;28;20052;-45
2024/01/16 06:18:04;;;;;;;6.75;3.10;;;;;;;1.81;100.00;99498.38;5073085;28;20056;-44
2024/01/16 06:20:33;;;;;;;7.15;3.25;;;;;;;1.80;100.00;99497.53;5072330;28;20060;-45
2024/01/16 06:23:02;;;;;;;6.05;3.08;;;;;;;1.83;100.00;99491.28;5071354;28;20056;-45
2024/01/16 06:25:30;;;;;;;7.80;3.50;;;;;;;1.77;100.00;99502.03;5072167;28;20040;-44
2024/01/16 06:27:58;;;;;;;7.78;3.55;;;;;;;1.72;100.00;99510.09;5071778;28;20049;-43
2024/01/16 06:30:31;;;;;;;7.10;3.43;;;;;;;1.69;100.00;99510.19;5071981;28;20085;-44
2024/01/16 06:33:00;;;;;;;6.00;3.60;;;;;;;1.70;100.00;99517.16;5072548;28;20045;-48
2024/01/16 06:35:30;;;;;;;5.97;3.10;;;;;;;1.73;100.00;99523.16;5072053;28;20051;-43
2024/01/16 06:37:59;;;;;;;6.22;3.33;;;;;;;1.73;100.00;99527.56;5072354;28;20052;-42
2024/01/16 06:40:27;;;;;;;9.63;3.10;;;;;;;1.68;100.00;99534.78;5072624;28;20464;-43
2024/01/16 06:42:55;;;;;;;7.22;3.20;;;;;;;1.79;100.00;99539.66;5071630;28;20101;-46
2024/01/16 06:45:26;;;;;;;7.85;3.30;;;;;;;1.78;100.00;99551.09;5072254;28;20041;-44
2024/01/16 06:47:54;;;;;;;7.18;3.83;;;;;;;1.72;100.00;99552.16;5071826;28;20041;-44
2024/01/16 06:50:23;;;;;;;7.38;3.90;;;;;;;1.81;100.00;99561.50;5071738;28;20129;-45
2024/01/16 06:52:53;;;;;;;6.93;3.53;;;;;;;1.73;100.00;99554.72;5071180;28;20425;-44
2024/01/16 06:55:22;;;;;;;5.00;2.95;;;;;;;1.66;100.00;99558.50;5069783;28;20079;-44
2024/01/16 06:57:50;;;;;;;5.53;3.30;;;;;;;1.75;100.00;99566.97;5070354;28;20048;-43
2024/01/16 07:00:19;;;;;;;9.10;3.63;;;;;;;1.68;100.00;99569.81;5069763;28;20059;-43
2024/01/16 07:02:47;;;;;;;6.43;3.08;;;;;;;1.80;100.00;99586.94;5071004;28;20128;-45
2024/01/16 07:05:16;;;;;;;8.00;3.40;;;;;;;1.84;100.00;99592.97;5071311;28;20131;-47
2024/01/16 07:07:45;;;;;;;9.65;3.20;;;;;;;1.57;100.00;99586.88;5071668;28;20048;-45
2024/01/16 07:10:18;;;;;;;22.10;4.45;;;;;;;1.48;100.00;99593.28;5070962;28;20049;-45
2024/01/16 07:12:47;;;;;;;8.20;3.53;;;;;;;1.38;100.00;99595.38;5072186;28;20047;-44
2024/01/16 07:15:16;;;;;;;8.18;3.47;;;;;;;1.40;100.00;99601.44;5072193;28;20478;-46
2024/01/16 07:17:44;;;;;;;8.43;3.58;;;;;;;1.36;100.00;99596.34;5073257;28;20050;-46
2024/01/16 07:20:13;;;;;;;10.27;3.80;;;;;;;1.37;100.00;99608.56;5070973;28;20049;-45
2024/01/16 07:22:42;;;;;;;6.20;3.45;;;;;;;1.36;100.00;99604.22;5071484;28;20061;-43
2024/01/16 07:25:11;;;;;;;6.68;3.20;;;;;;;1.39;100.00;99612.84;5071726;28;20040;-44
2024/01/16 07:27:42;;;;;;;7.53;3.60;;;;;;;1.49;100.00;99613.41;5071980;28;20129;-44
2024/01/16 07:30:13;;;;;;;7.80;3.33;;;;;;;1.50;100.00;99624.78;5070426;28;20094;-43
2024/01/16 07:32:42;;;;;;;5.85;2.78;;;;;;;1.56;100.00;99627.22;5073268;28;20084;-43
2024/01/16 07:35:14;;;;;;;5.60;3.10;;;;;;;1.59;100.00;99637.63;5074440;28;20055;-51
2024/01/16 07:37:42;;;;;;;6.63;3.35;;;;;;;1.70;100.00;99638.97;5076368;28;20048;-42
2024/01/16 07:40:12;;;;;;;8.00;3.25;;;;;;;1.86;100.00;99641.09;5074172;28;20055;-44
2024/01/16 07:42:42;;;;;;;7.43;3.30;;;;;;;1.96;100.00;99647.75;5075700;28;20144;-45
2024/01/16 07:45:10;;;;;;;5.63;2.95;;;;;;;1.98;100.00;99652.03;5074764;28;20446;-43
2024/01/16 07:47:39;;;;;;;7.07;3.05;;;;;;;2.18;100.00;99661.88;5075344;28;20044;-43
2024/01/16 07:50:08;;;;;;;6.57;2.95;;;;;;;2.30;100.00;99666.69;5074431;28;20128;-43
2024/01/16 07:52:36;;;;;;;5.00;2.88;;;;;;;2.30;100.00;99671.94;5074734;28;20044;-44
2024/01/16 07:55:05;;;;;;;5.18;3.00;;;;;;;2.33;100.00;99664.88;5075453;28;20056;-44
2024/01/16 07:57:34;;;;;;;6.80;2.92;;;;;;;2.44;100.00;99676.72;5074990;28;20409;-46
2024/01/16 08:00:05;;;;;;;5.93;3.00;;;;;;;2.41;100.00;99674.19;5074259;28;20057;-43
2024/01/16 08:02:34;;;;;;;5.93;3.13;;;;;;;2.40;100.00;99679.50;5075054;28;20048;-45
2024/01/16 08:05:06;;;;;;;5.53;2.72;;;;;;;2.34;100.00;99671.84;5074985;28;20045;-44
2024/01/16 08:07:35;;;;;;;7.97;2.65;;;;;;;2.29;100.00;99691.28;5075275;28;20163;-44
2024/01/16 08:10:04;;;;;;;7.03;2.88;;;;;;;2.22;100.00;99679.28;5073496;28;20063;-43
2024/01/16 08:12:32;;;;;;;6.38;2.67;;;;;;;2.21;100.00;99693.31;5074795;28;20049;-43
2024/01/16 08:15:00;;;;;;;5.78;2.80;;;;;;;2.13;100.00;99694.53;5074167;28;20127;-42
2024/01/16 08:17:30;;;;;;;7.78;2.88;;;;;;;2.23;100.00;99699.41;5074308;28;20041;-44
2024/01/16 08:19:58;;;;;;;7.35;2.80;;;;;;;2.15;100.00;99695.34;5072591;28;20055;-44
2024/01/16 08:22:26;;;;;;;6.38;3.03;;;;;;;2.27;100.00;99701.00;5073860;28;20054;-43
2024/01/16 08:24:57;;;;;;;5.65;2.80;;;;;;;2.30;100.00;99703.53;5073788;28;20186;-43
2024/01/16 08:27:26;;;;;;;6.30;3.03;;;;;;;2.37;100.00;99708.59;5073640;28;20051;-42
2024/01/16 08:29:54;;;;;;;8.73;3.38;;;;;;;2.47;100.00;99707.34;5070414;28;20429;-44
2024/01/16 08:32:22;;;;;;;9.13;3.30;;;;;;;2.34;100.00;99713.97;5073434;28;20389;-43
2024/01/16 08:34:53;;;;;;;8.43;3.50;;;;;;;2.23;100.00;99711.72;5073916;28;20041;-42
2024/01/16 08:37:21;;;;;;;8.18;3.03;;;;;;;2.25;100.00;99730.94;5073581;28;20040;-44
2024/01/16 08:39:50;;;;;;;7.35;3.05;;;;;;;2.37;100.00;99727.88;5072083;28;20056;-46
2024/01/16 08:42:18;;;;;;;8.20;3.67;;;;;;;2.29;100.00;99724.63;5073910;28;20079;-44
2024/01/16 08:44:46;;;;;;;10.88;4.65;;;;;;;2.37;100.00;99734.91;5073227;28;20059;-44
2024/01/16 08:47:15;;;;;;;7.35;3.80;;;;;;;2.38;100.00;99736.63;5073447;28;20048;-43
2024/01/16 08:49:43;;;;;;;10.18;3.20;;;;;;;2.41;100.00;99741.78;5071969;28;20539;-44
2024/01/16 08:52:13;;;;;;;7.00;3.28;;;;;;;2.51;100.00;99733.53;5073260;28;20135;-45
2024/01/16 08:54:41;;;;;;;7.65;3.40;;;;;;;2.44;100.00;99739.06;5072894;28;20040;-44
2024/01/16 08:57:10;;;;;;;7.90;3.40;;;;;;;2.43;100.00;99737.34;5073585;28;20128;-45
2024/01/16 08:59:42;;;;;;;6.22;3.00;;;;;;;2.50;100.00;99747.56;5072619;28;20608;-45
2024/01/16 09:02:10;;;;;;;6.65;3.38;;;;;;;2.58;100.00;99749.94;5076635;28;20048;-45
2024/01/16 09:04:39;;;;;;;5.63;2.70;;;;;;;2.57;100.00;99751.72;5076183;28;20051;-45
2024/01/16 09:07:07;;;;;;;8.80;2.95;;;;;;;2.66;100.00;99753.16;5076058;28;20049;-44
2024/01/16 09:09:37;;;;;;;7.20;2.90;;;;;;;2.69;100.00;99758.31;5073377;28;20044;-44
2024/01/16 09:12:06;;;;;;;7.53;2.95;;;;;;;2.68;100.00;99756.59;5074630;28;20083;-44
2024/01/16 09:14:34;;;;;;;7.18;3.20;;;;;;;2.76;100.00;99754.56;5073380;28;20079;-47
2024/01/16 09:17:04;;;;;;;8.02;3.35;;;;;;;2.81;100.00;99750.00;5073590;28;20053;-45
2024/01/16 09:19:32;;;;;;;6.65;3.03;;;;;;;2.73;100.00;99759.94;5071312;28;20048;-44
2024/01/16 09:22:02;;;;;;;6.15;2.90;;;;;;;2.80;100.00;99774.63;5072681;28;20130;-44
2024/01/16 09:24:31;;;;;;;5.82;2.97;;;;;;;2.78;100.00;99773.78;5072620;28;20497;-45
2024/01/16 09:27:01;;;;;;;7.57;3.20;;;;;;;2.80;100.00;99766.72;5073211;28;20080;-47
2024/01/16 09:29:29;;;;;;;7.82;3.15;;;;;;;2.86;100.00;99768.25;5072021;28;20040;-44
2024/01/16 09:31:57;;;;;;;7.22;2.90;;;;;;;2.85;100.00;99769.16;5073389;28;20071;-45
2024/01/16 09:34:25;;;;;;;6.95;3.05;;;;;;;2.87;100.00;99765.56;5072421;28;20374;-50
2024/01/16 09:36:54;;;;;;;8.15;3.50;;;;;;;3.06;100.00;99760.47;5073463;28;20075;-45
2024/01/16 09:39:22;;;;;;;7.40;3.25;;;;;;;3.14;100.00;99766.31;5071846;28;20037;-46
2024/01/16 09:41:51;;;;;;;6.93;3.28;;;;;;;3.17;100.00;99770.59;5072314;28;20407;-45
2024/01/16 09:44:20;;;;;;;6.90;3.25;;;;;;;3.29;100.00;99764.88;5072801;28;20047;-45
2024/01/16 09:46:51;;;;;;;23.77;4.03;;;;;;;3.28;100.00;99763.19;5052735;28;20084;-45
2024/01/16 09:49:23;;;;;;;22.33;4.07;;;;;;;3.38;100.00;99764.53;5052584;28;20076;-44
2024/01/16 09:51:51;;;;;;;9.02;2.95;;;;;;;3.37;100.00;99759.31;5071876;28;20059;-43
2024/01/16 09:54:19;;;;;;;14.32;3.00;;;;;;;3.49;100.00;99765.91;5073098;28;20080;-44
2024/01/16 09:56:52;;;;;;;11.85;2.88;;;;;;;3.49;100.00;99758.84;5072388;28;20044;-46
2024/01/16 09:59:23;;;;;;;9.57;3.03;;;;;;;3.54;100.00;99761.28;5072931;28;20114;-44
2024/01/16 10:01:53;;;;;;;7.85;2.97;;;;;;;3.42;100.00;99760.84;5071708;28;20041;-45
2024/01/16 10:04:21;;;;;;;21.38;3.83;;;;;;;3.39;100.00;99760.97;5072762;28;20052;-44
2024/01/16 10:06:52;;;;;;;16.63;3.33;;;;;;;3.52;100.00;99765.78;5071965;28;20086;-44
2024/01/16 10:09:20;;;;;;;7.28;3.05;;;;;;;3.53;100.00;99767.50;5071111;28;20044;-46
2024/01/16 10:11:51;;;;;;;8.43;3.22;;;;;;;3.60;100.00;99763.69;5071101;28;20053;-44
2024/01/16 10:14:19;;;;;;;6.32;2.78;;;;;;;3.64;100.00;99767.91;5072521;28;20412;-43
2024/01/16 10:17:02;;;;;;;6.72;2.80;;;;;;;3.66;99.42;99752.88;5071937;28;20440;-43
2024/01/16 10:19:30;;;;;;;6.77;2.80;;;;;;;3.64;98.28;99775.84;5070242;28;20048;-44
2024/01/16 10:22:13;;;;;;;7.27;2.70;;;;;;;3.69;98.19;99773.88;5071725;28;20044;-44
2024/01/16 10:24:41;;;;;;;9.88;2.85;;;;;;;3.65;98.90;99774.91;5071441;28;20322;-43
2024/01/16 10:27:10;;;;;;;7.57;3.03;;;;;;;3.76;99.34;99775.34;5072065;28;20094;-43
2024/01/16 10:29:46;;;;;;;9.05;2.88;;;;;;;3.81;99.26;99785.72;5070218;28;20102;-43
2024/01/16 10:32:28;;;;;;;5.05;2.13;;;;;;;3.63;97.45;99771.47;5071660;28;20097;-44
2024/01/16 10:35:05;;;;;;;8.85;2.60;;;;;;;3.56;97.27;99778.75;5071354;28;20350;-42
2024/01/16 10:37:42;;;;;;;6.22;2.63;;;;;;;3.45;96.23;99776.53;5071231;28;20125;-45
2024/01/16 10:40:10;;;;;;;7.75;2.65;;;;;;;3.43;97.29;99782.81;5069628;28;20045;-45
2024/01/16 10:42:39;;;;;;;9.43;2.90;;;;;;;3.43;96.35;99773.13;5072267;28;20193;-45
2024/01/16 10:45:10;;;;;;;5.75;2.78;;;;;;;3.72;96.99;99777.25;5071818;28;20409;-46
2024/01/16 10:47:42;;;;;;;7.35;2.75;;;;;;;3.86;93.96;99776.72;5071267;28;20049;-45
2024/01/16 10:50:11;;;;;;;7.77;2.90;;;;;;;3.77;94.32;99776.22;5069883;28;20048;-44
2024/01/16 10:52:48;;;;;;;9.43;3.20;;;;;;;3.70;94.54;99775.59;5071361;28;20076;-43
2024/01/16 10:55:22;;;;;;;5.40;2.78;;;;;;;3.69;96.76;99769.47;5071452;28;20094;-44
2024/01/16 10:57:51;;;;;;;6.47;2.83;;;;;;;3.74;95.99;99766.63;5071020;28;20093;-43
2024/01/16 11:00:21;;;;;;;7.50;2.88;;;;;;;3.88;95.76;99764.31;5069127;28;20101;-45
2024/01/16 11:02:59;;;;;;;6.40;3.13;;;;;;;3.90;94.41;99762.47;5070857;28;20128;-45
2024/01/16 11:05:44;;;;;;;9.75;2.90;;;;;;;3.90;93.65;99767.75;5070655;28;20131;-44
2024/01/16 11:08:16;;;;;;;5.65;2.83;;;;;;;3.94;92.16;99763.19;5070824;28;20048;-45
2024/01/16 11:10:46;;;;;;;6.88;2.70;;;;;;;3.97;91.83;99763.09;5069108;28;20040;-47
2024/01/16 11:13:15;;;;;;;6.53;3.15;;;;;;;4.09;92.77;99769.63;5071142;28;20048;-45
2024/01/16 11:15:44;;;;;;;5.35;2.70;;;;;;;4.01;90.38;99759.38;5070275;28;20059;-45
2024/01/16 11:18:15;;;;;;;6.22;2.83;;;;;;;4.05;90.50;99760.09;5071192;28;20494;-46
2024/01/16 11:20:44;;;;;;;11.02;2.92;;;;;;;4.06;91.31;99761.84;5069543;28;20052;-44
2024/01/16 11:23:16;;;;;;;6.75;2.67;;;;;;;4.09;89.96;99765.22;5063258;28;20055;-43
2024/01/16 11:25:44;;;;;;;5.78;2.63;;;;;;;3.94;91.44;99755.28;5059175;28;20080;-43
2024/01/16 11:28:14;;;;;;;5.72;2.65;;;;;;;3.90;89.66;99767.75;5070499;28;20040;-46
2024/01/16 11:30:43;;;;;;;7.70;2.80;;;;;;;3.93;87.76;99764.97;5069120;28;20432;-43
2024/01/16 11:33:47;;;;;;;5.38;2.65;;;;;;;3.94;84.92;99761.41;5070635;28;20071;-46
2024/01/16 11:36:48;;;;;;;6.35;2.55;;;;;;;4.18;85.47;99766.63;5070469;28;20052;-44
2024/01/16 11:39:19;;;;;;;8.82;2.60;;;;;;;4.22;85.08;99763.75;5070358;28;20055;-45
2024/01/16 11:41:57;;;;;;;5.28;2.58;;;;;;;4.27;83.72;99759.16;5069345;28;20071;-45
2024/01/16 11:44:43;;;;;;;6.55;2.95;;;;;;;4.35;83.38;99758.84;5070418;28;20044;-46
2024/01/16 11:47:17;;;;;;;7.43;2.72;;;;;;;4.36;82.64;99757.94;5069551;28;20071;-46